Time;durP1;ratioP1;P1;durP2;ratioP2;P2;SDS_P1;SDS_P2;PMS_P1;PMS_P2;Temp;Humidity;BMP_temperature;BMP_pressure;BME280_temperature;BME280_humidity;BME280_pressure;Samples;Min_cycle;Max_cycle;Signal;HPM_P1;HPM_P2
2021/05/12 00:00:27;;;;;;;11.15;2.58;;;;;;;19.43;47.27;99464.78;5071582;28;20033;-62
2021/05/12 00:02:53;;;;;;;6.57;2.85;;;;;;;19.37;47.25;99466.75;5071663;28;20488;-62
2021/05/12 00:05:21;;;;;;;9.15;2.53;;;;;;;19.33;47.33;99460.44;5077721;28;20438;-62
2021/05/12 00:07:47;;;;;;;4.38;2.40;;;;;;;19.31;47.73;99465.06;5078027;28;20119;-62
2021/05/12 00:10:13;;;;;;;3.15;2.17;;;;;;;19.35;47.77;99465.66;5076917;28;20221;-62
2021/05/12 00:12:39;;;;;;;5.88;2.10;;;;;;;19.29;47.25;99468.38;5077519;28;20025;-62
2021/05/12 00:15:17;;;;;;;3.45;2.35;;;;;;;19.22;47.60;99460.22;5076907;28;20428;-62
2021/05/12 00:17:44;;;;;;;7.40;2.47;;;;;;;19.15;47.50;99454.84;5077532;28;20032;-62
2021/05/12 00:20:11;;;;;;;3.80;2.30;;;;;;;19.12;47.67;99452.97;5076202;28;20400;-62
2021/05/12 00:22:48;;;;;;;3.70;2.28;;;;;;;19.09;47.68;99451.09;5077577;28;20036;-62
2021/05/12 00:25:15;;;;;;;5.35;2.85;;;;;;;19.05;47.76;99456.19;5077065;28;20055;-62
2021/05/12 00:27:40;;;;;;;4.45;2.30;;;;;;;18.98;47.82;99448.81;5077385;28;20020;-62
2021/05/12 00:30:09;;;;;;;4.97;2.40;;;;;;;18.96;48.02;99456.25;5076734;28;20024;-62
2021/05/12 00:32:35;;;;;;;2.78;2.28;;;;;;;18.92;47.64;99447.91;5077056;28;20024;-62
2021/05/12 00:35:00;;;;;;;4.45;2.20;;;;;;;18.90;47.95;99444.75;5076912;28;20083;-62
2021/05/12 00:37:26;;;;;;;3.25;2.08;;;;;;;18.84;47.85;99447.44;5076490;28;20043;-62
2021/05/12 00:39:51;;;;;;;5.85;2.50;;;;;;;18.78;47.98;99442.88;5076974;28;20025;-62
2021/05/12 00:42:16;;;;;;;7.50;2.47;;;;;;;18.75;47.94;99443.84;5076689;28;20024;-62
2021/05/12 00:44:42;;;;;;;3.38;2.20;;;;;;;18.69;48.61;99438.03;5076843;28;20435;-62
2021/05/12 00:47:07;;;;;;;3.75;2.03;;;;;;;18.66;48.26;99441.84;5076463;28;20074;-62
2021/05/12 00:49:33;;;;;;;6.47;2.25;;;;;;;18.60;48.40;99438.03;5076965;28;20031;-62
2021/05/12 00:51:59;;;;;;;5.43;2.35;;;;;;;18.58;48.34;99434.88;5076684;28;20161;-62
2021/05/12 00:54:25;;;;;;;11.65;2.13;;;;;;;18.57;48.26;99432.50;5076617;28;20032;-62
2021/05/12 00:56:50;;;;;;;6.90;2.55;;;;;;;18.54;48.55;99434.25;5076628;28;20140;-62
2021/05/12 00:59:16;;;;;;;3.97;2.13;;;;;;;18.50;48.65;99430.81;5076363;28;20028;-62
2021/05/12 01:01:41;;;;;;;2.67;1.90;;;;;;;18.46;48.67;99433.84;5076144;28;20020;-62
2021/05/12 01:04:09;;;;;;;3.63;2.20;;;;;;;18.43;48.71;99428.31;5076390;28;20020;-62
2021/05/12 01:06:38;;;;;;;4.32;2.08;;;;;;;18.38;49.23;99420.44;5076120;28;20031;-62
2021/05/12 01:09:06;;;;;;;3.47;2.10;;;;;;;18.33;49.24;99426.75;5076085;28;20077;-62
2021/05/12 01:11:32;;;;;;;4.43;2.42;;;;;;;18.25;49.19;99408.47;5061172;28;20025;-62
2021/05/12 01:13:58;;;;;;;3.03;2.10;;;;;;;18.19;49.59;99417.66;5076592;28;20035;-62
2021/05/12 01:16:23;;;;;;;12.25;2.58;;;;;;;18.13;49.85;99427.31;5075735;28;20044;-62
2021/05/12 01:18:49;;;;;;;4.70;2.03;;;;;;;18.07;49.47;99418.59;5076175;28;20020;-63
2021/05/12 01:21:15;;;;;;;3.28;1.95;;;;;;;18.03;49.60;99414.34;5067524;28;20031;-62
2021/05/12 01:23:46;;;;;;;4.20;2.35;;;;;;;17.98;49.60;99410.09;5064250;28;20025;-62
2021/05/12 01:26:14;;;;;;;7.43;2.25;;;;;;;17.92;49.82;99409.19;5076023;28;20008;-62
2021/05/12 01:28:43;;;;;;;3.78;2.42;;;;;;;17.88;49.71;99417.09;5075837;28;20488;-62
2021/05/12 01:31:16;;;;;;;4.90;2.40;;;;;;;17.85;49.79;99409.53;5071119;28;20067;-62
2021/05/12 01:33:42;;;;;;;8.43;2.10;;;;;;;17.80;50.04;99407.28;5075555;28;20335;-61
2021/05/12 01:36:09;;;;;;;4.50;2.10;;;;;;;17.77;50.11;99402.56;5075696;28;20077;-62
2021/05/12 01:38:35;;;;;;;6.22;2.17;;;;;;;17.73;50.03;99399.09;5075711;28;20024;-62
2021/05/12 01:41:02;;;;;;;2.63;2.13;;;;;;;17.68;50.13;99394.06;5075624;28;20016;-62
2021/05/12 01:43:29;;;;;;;4.60;2.20;;;;;;;17.65;50.25;99394.97;5075674;28;20081;-62
2021/05/12 01:45:54;;;;;;;4.88;1.83;;;;;;;17.60;50.26;99397.19;5075086;28;20029;-62
2021/05/12 01:48:20;;;;;;;7.00;2.28;;;;;;;17.56;50.23;99385.22;5074718;28;20028;-62
2021/05/12 01:50:45;;;;;;;2.28;1.83;;;;;;;17.53;50.70;99386.16;5075224;28;20027;-62
2021/05/12 01:53:11;;;;;;;4.30;1.98;;;;;;;17.52;50.52;99380.94;5075575;28;20020;-62
2021/05/12 01:55:38;;;;;;;4.25;2.15;;;;;;;17.51;50.46;99380.16;5073624;28;20134;-62
2021/05/12 01:58:03;;;;;;;3.22;2.00;;;;;;;17.51;50.37;99376.50;5075557;28;20043;-62
2021/05/12 02:00:37;;;;;;;6.05;1.92;;;;;;;17.52;50.49;99372.41;5075737;28;20412;-62
2021/05/12 02:03:08;;;;;;;3.70;2.20;;;;;;;17.48;50.35;99375.41;5075491;28;20040;-62
2021/05/12 02:05:34;;;;;;;3.25;2.28;;;;;;;17.44;50.60;99371.94;5075498;28;20044;-62
2021/05/12 02:08:02;;;;;;;5.85;2.10;;;;;;;17.38;50.79;99371.00;5075181;28;20024;-62
2021/05/12 02:10:28;;;;;;;3.78;2.10;;;;;;;17.32;50.69;99366.44;5075502;28;20024;-62
2021/05/12 02:12:54;;;;;;;5.55;2.30;;;;;;;17.27;50.78;99362.97;5075532;28;20476;-62
2021/05/12 02:15:21;;;;;;;2.40;1.65;;;;;;;17.22;50.92;99362.81;5075247;28;20044;-62
2021/05/12 02:17:47;;;;;;;2.92;1.88;;;;;;;17.19;50.78;99363.75;5075517;28;20043;-61
2021/05/12 02:20:14;;;;;;;5.25;1.98;;;;;;;17.14;51.00;99358.69;5074932;28;20025;-62
2021/05/12 02:22:40;;;;;;;5.25;2.03;;;;;;;17.11;50.55;99354.75;5075688;28;20081;-62
2021/05/12 02:25:07;;;;;;;3.47;2.00;;;;;;;17.07;51.07;99351.28;5074118;28;20112;-62
2021/05/12 02:27:33;;;;;;;3.13;1.65;;;;;;;17.07;51.25;99354.13;5075485;28;20025;-62
2021/05/12 02:30:01;;;;;;;4.93;2.20;;;;;;;17.11;50.87;99359.66;5075493;28;20028;-62
2021/05/12 02:32:27;;;;;;;8.65;2.30;;;;;;;17.10;50.98;99341.03;5075453;28;20020;-62
2021/05/12 02:34:52;;;;;;;7.75;2.60;;;;;;;17.09;50.88;99351.59;5075207;28;20028;-62
2021/05/12 02:37:18;;;;;;;3.65;2.05;;;;;;;17.04;51.01;99348.63;5075136;28;20320;-62
2021/05/12 02:39:43;;;;;;;6.30;2.22;;;;;;;17.02;51.11;99356.81;5075211;28;20020;-62
2021/05/12 02:42:09;;;;;;;4.88;2.15;;;;;;;17.08;50.77;99352.09;5075024;28;20020;-62
2021/05/12 02:44:34;;;;;;;4.55;1.80;;;;;;;17.10;50.60;99363.75;5075218;28;20362;-62
2021/05/12 02:46:59;;;;;;;5.80;2.22;;;;;;;17.08;50.44;99349.25;5074909;28;20149;-62
2021/05/12 02:49:25;;;;;;;6.97;2.17;;;;;;;17.02;50.41;99351.13;5075071;28;20032;-62
2021/05/12 02:51:50;;;;;;;5.50;2.03;;;;;;;16.96;50.45;99354.59;5075481;28;20025;-62
2021/05/12 02:54:15;;;;;;;2.22;1.67;;;;;;;16.91;50.90;99352.38;5074749;28;20017;-62
2021/05/12 02:56:41;;;;;;;3.20;1.90;;;;;;;16.88;50.87;99358.19;5075361;28;20021;-62
2021/05/12 02:59:06;;;;;;;5.85;2.22;;;;;;;16.88;50.83;99347.63;5078255;28;20028;-62
2021/05/12 03:01:31;;;;;;;4.07;2.08;;;;;;;16.85;50.90;99353.47;5070755;28;20021;-62
2021/05/12 03:03:57;;;;;;;5.32;1.80;;;;;;;16.80;51.09;99351.25;5072846;28;20016;-62
2021/05/12 03:06:22;;;;;;;4.85;2.10;;;;;;;16.75;51.17;99354.72;5078720;28;20016;-62
2021/05/12 03:08:47;;;;;;;3.25;2.08;;;;;;;16.70;51.31;99353.28;5078862;28;20111;-62
2021/05/12 03:11:13;;;;;;;3.72;2.20;;;;;;;16.67;51.59;99363.53;5078355;28;20047;-62
2021/05/12 03:13:38;;;;;;;7.05;2.67;;;;;;;16.64;51.63;99364.44;5078849;28;20050;-61
2021/05/12 03:16:04;;;;;;;5.18;2.10;;;;;;;16.62;51.70;99369.00;5078236;28;20069;-62
2021/05/12 03:18:29;;;;;;;5.25;2.05;;;;;;;16.62;51.90;99369.00;5078053;28;20029;-62
2021/05/12 03:20:55;;;;;;;5.97;2.70;;;;;;;16.60;51.76;99377.19;5078616;28;20108;-62
2021/05/12 03:23:20;;;;;;;3.28;2.20;;;;;;;16.57;51.77;99372.47;5077230;28;20035;-62
2021/05/12 03:25:46;;;;;;;3.40;2.35;;;;;;;16.54;51.64;99373.41;5078552;28;20415;-62
2021/05/12 03:28:12;;;;;;;3.67;2.20;;;;;;;16.52;52.13;99381.59;5078270;28;20061;-61
2021/05/12 03:30:39;;;;;;;6.50;2.55;;;;;;;16.49;51.91;99383.31;5078270;28;20028;-61
2021/05/12 03:33:07;;;;;;;3.15;2.30;;;;;;;16.45;52.39;99387.56;5078240;28;20023;-61
2021/05/12 03:35:33;;;;;;;4.30;2.20;;;;;;;16.43;52.20;99384.38;5077911;28;20056;-62
2021/05/12 03:38:01;;;;;;;3.58;2.13;;;;;;;16.36;52.73;99386.25;5078245;28;20457;-61
2021/05/12 03:40:28;;;;;;;5.15;2.47;;;;;;;16.35;53.01;99384.66;5077968;28;20039;-62
2021/05/12 03:42:55;;;;;;;5.22;2.30;;;;;;;16.34;53.14;99388.75;5078113;28;20020;-62
2021/05/12 03:45:21;;;;;;;5.75;2.03;;;;;;;16.34;53.32;99376.63;5077400;28;20336;-62
2021/05/12 03:47:47;;;;;;;10.02;2.83;;;;;;;16.32;53.04;99377.09;5077940;28;20021;-62
2021/05/12 03:50:13;;;;;;;6.88;2.47;;;;;;;16.33;52.86;99375.03;5077872;28;20122;-62
2021/05/12 03:52:38;;;;;;;3.75;2.20;;;;;;;16.33;53.17;99380.72;5077938;28;20032;-61
2021/05/12 03:55:06;;;;;;;5.78;2.45;;;;;;;16.32;53.12;99382.78;5076930;28;20039;-62
2021/05/12 03:57:32;;;;;;;3.38;2.22;;;;;;;16.33;53.12;99375.03;5077597;28;20024;-62
2021/05/12 03:59:57;;;;;;;6.43;2.72;;;;;;;16.37;53.04;99387.03;5077934;28;20546;-62
2021/05/12 04:02:22;;;;;;;5.20;2.80;;;;;;;16.35;53.53;99372.53;5063091;28;20029;-61
2021/05/12 04:04:48;;;;;;;6.57;2.45;;;;;;;16.35;53.52;99361.97;5070892;28;20032;-62
2021/05/12 04:07:13;;;;;;;6.15;2.58;;;;;;;16.37;53.68;99364.34;5071157;28;20024;-62
2021/05/12 04:09:38;;;;;;;6.65;2.25;;;;;;;16.43;53.57;99367.34;5067884;28;20060;-63
2021/05/12 04:12:04;;;;;;;4.57;2.05;;;;;;;16.46;53.19;99377.78;5057930;28;20027;-62
2021/05/12 04:14:30;;;;;;;5.90;2.25;;;;;;;16.50;53.07;99372.75;5057594;28;20035;-62
2021/05/12 04:16:55;;;;;;;5.32;2.33;;;;;;;16.52;52.82;99365.34;5057529;28;20040;-62
2021/05/12 04:19:21;;;;;;;3.80;2.47;;;;;;;16.60;53.17;99363.00;5050037;28;20401;-62
2021/05/12 04:21:47;;;;;;;10.18;3.40;;;;;;;16.65;53.51;99354.66;5058673;28;20031;-63
2021/05/12 04:24:12;;;;;;;4.95;2.30;;;;;;;16.75;53.55;99349.06;5059158;28;20021;-62
2021/05/12 04:26:38;;;;;;;4.10;2.67;;;;;;;16.80;52.86;99357.72;5060796;28;20028;-63
2021/05/12 04:29:04;;;;;;;7.93;2.58;;;;;;;16.89;52.74;99351.28;5061576;28;20313;-63
2021/05/12 04:31:30;;;;;;;6.82;2.53;;;;;;;16.99;53.27;99353.66;5059946;28;20319;-63
2021/05/12 04:33:55;;;;;;;8.10;2.17;;;;;;;17.09;52.21;99357.28;5062298;28;20024;-62
2021/05/12 04:36:21;;;;;;;4.15;2.47;;;;;;;17.22;51.26;99345.75;5059560;28;20025;-62
2021/05/12 04:38:46;;;;;;;3.78;2.35;;;;;;;17.26;51.58;99346.41;5047888;28;20056;-62
2021/05/12 04:41:11;;;;;;;12.38;2.30;;;;;;;17.27;51.28;99350.84;5042928;28;20033;-62
2021/05/12 04:43:37;;;;;;;11.35;2.35;;;;;;;17.33;51.11;99343.25;5046719;28;20032;-62
2021/05/12 04:46:02;;;;;;;7.40;2.33;;;;;;;17.38;51.45;99351.13;5044946;28;20040;-62
2021/05/12 04:48:29;;;;;;;5.03;2.40;;;;;;;17.47;51.01;99351.13;5041489;28;20111;-61
2021/05/12 04:50:54;;;;;;;4.70;2.80;;;;;;;17.53;50.04;99346.41;5049319;28;20029;-62
2021/05/12 04:53:20;;;;;;;9.85;2.50;;;;;;;17.59;50.37;99347.31;5047317;28;20025;-62
2021/05/12 04:55:45;;;;;;;3.13;2.10;;;;;;;17.64;50.22;99356.47;5041755;28;20393;-62
2021/05/12 04:58:10;;;;;;;10.02;2.65;;;;;;;17.74;49.56;99343.84;5046543;28;20021;-62
2021/05/12 05:00:36;;;;;;;8.63;3.08;;;;;;;17.81;49.17;99332.94;5048058;28;20074;-62
2021/05/12 05:03:03;;;;;;;7.95;2.38;;;;;;;17.88;49.16;99332.59;5044253;28;20071;-61
2021/05/12 05:05:29;;;;;;;7.95;2.45;;;;;;;17.95;48.70;99328.63;5055021;28;20029;-62
2021/05/12 05:07:54;;;;;;;5.80;2.40;;;;;;;18.06;48.28;99331.72;5056459;28;20120;-62
2021/05/12 05:10:20;;;;;;;4.97;2.10;;;;;;;18.13;48.36;99324.94;5055803;28;20112;-62
2021/05/12 05:12:45;;;;;;;5.93;2.28;;;;;;;18.18;48.22;99321.44;5056066;28;20359;-61
2021/05/12 05:15:11;;;;;;;3.25;2.20;;;;;;;18.23;48.26;99321.56;5056003;28;20044;-62
2021/05/12 05:17:36;;;;;;;5.82;2.17;;;;;;;18.27;47.39;99323.44;5056272;28;20036;-62
2021/05/12 05:20:03;;;;;;;8.05;1.95;;;;;;;18.33;47.17;99312.97;5071007;28;20328;-62
2021/05/12 05:22:29;;;;;;;2.13;1.92;;;;;;;18.35;47.37;99307.59;5076007;28;20036;-62
2021/05/12 05:24:56;;;;;;;10.38;2.92;;;;;;;18.40;47.67;99301.25;5075987;28;20059;-62
2021/05/12 05:27:22;;;;;;;5.38;1.88;;;;;;;18.48;47.49;99306.09;5074872;28;20122;-62
2021/05/12 05:29:47;;;;;;;10.20;1.98;;;;;;;18.50;46.73;99302.78;5076240;28;20709;-62
2021/05/12 05:32:13;;;;;;;9.25;2.50;;;;;;;18.54;46.79;99311.91;5075699;28;20020;-62
2021/05/12 05:34:39;;;;;;;23.48;3.72;;;;;;;18.55;46.76;99310.63;5075911;28;20024;-62
2021/05/12 05:37:04;;;;;;;9.00;2.30;;;;;;;18.58;47.15;99309.66;5075917;28;20042;-62
2021/05/12 05:39:35;;;;;;;4.07;2.45;;;;;;;18.62;47.58;99298.09;5075716;28;20025;-62
2021/05/12 05:42:06;;;;;;;11.07;2.80;;;;;;;18.61;46.89;99300.16;5075509;28;20028;-61
2021/05/12 05:44:31;;;;;;;8.40;2.22;;;;;;;18.63;46.81;99309.06;5076119;28;20035;-62
2021/05/12 05:46:57;;;;;;;6.03;2.22;;;;;;;18.66;46.79;99310.94;5074585;28;20025;-62
2021/05/12 05:49:23;;;;;;;8.80;2.28;;;;;;;18.72;46.10;99313.91;5076049;28;20020;-62
2021/05/12 05:51:49;;;;;;;8.60;2.60;;;;;;;18.71;46.58;99321.66;5074767;28;20039;-62
2021/05/12 05:54:14;;;;;;;5.30;2.00;;;;;;;18.70;46.49;99317.22;5075363;28;20021;-62
2021/05/12 05:56:40;;;;;;;9.98;2.38;;;;;;;18.71;46.44;99326.56;5075525;28;20463;-62
2021/05/12 05:59:05;;;;;;;8.40;2.72;;;;;;;18.77;47.28;99322.56;5075523;28;20029;-62
2021/05/12 06:01:30;;;;;;;6.60;2.00;;;;;;;18.87;46.23;99322.47;5067699;28;20029;-62
2021/05/12 06:03:56;;;;;;;6.43;1.60;;;;;;;18.92;45.45;99322.63;5069474;28;20023;-62
2021/05/12 06:06:21;;;;;;;8.77;2.33;;;;;;;19.02;45.87;99329.00;5075363;28;20021;-62
2021/05/12 06:08:46;;;;;;;8.43;1.90;;;;;;;19.06;44.75;99326.75;5075670;28;20070;-62
2021/05/12 06:11:12;;;;;;;5.63;2.30;;;;;;;19.03;45.05;99322.84;5074014;28;20471;-62
2021/05/12 06:13:37;;;;;;;9.00;2.17;;;;;;;19.06;45.40;99324.72;5075541;28;20024;-62
2021/05/12 06:16:03;;;;;;;12.05;2.13;;;;;;;19.11;45.48;99320.41;5075259;28;20052;-62
2021/05/12 06:18:29;;;;;;;6.43;2.00;;;;;;;19.11;45.29;99321.19;5075211;28;20081;-62
2021/05/12 06:20:55;;;;;;;5.50;1.88;;;;;;;19.17;45.48;99331.88;5075542;28;20036;-62
2021/05/12 06:23:20;;;;;;;4.88;1.50;;;;;;;19.23;45.23;99336.44;5075194;28;20027;-62
2021/05/12 06:25:46;;;;;;;6.25;1.98;;;;;;;19.29;45.03;99345.88;5075226;28;20017;-63
2021/05/12 06:28:11;;;;;;;6.93;2.10;;;;;;;19.28;45.05;99355.72;5075214;28;20028;-62
2021/05/12 06:30:37;;;;;;;4.78;2.00;;;;;;;19.28;44.91;99361.41;5075222;28;20024;-62
2021/05/12 06:33:06;;;;;;;6.82;2.25;;;;;;;19.28;44.56;99347.16;5078834;28;20025;-62
2021/05/12 06:35:31;;;;;;;6.75;2.08;;;;;;;19.27;45.17;99354.13;5078890;28;20020;-62
2021/05/12 06:37:57;;;;;;;5.20;1.90;;;;;;;19.30;45.65;99358.84;5079547;28;20319;-62
2021/05/12 06:40:22;;;;;;;5.22;1.67;;;;;;;19.35;45.73;99360.22;5078898;28;20289;-62
2021/05/12 06:42:47;;;;;;;6.45;1.70;;;;;;;19.41;45.25;99353.38;5078210;28;20442;-62
2021/05/12 06:45:13;;;;;;;5.85;2.10;;;;;;;19.46;44.86;99360.47;5079512;28;20090;-62
2021/05/12 06:47:40;;;;;;;4.63;2.00;;;;;;;19.45;44.92;99358.91;5079580;28;20020;-62
2021/05/12 06:50:07;;;;;;;10.15;2.20;;;;;;;19.48;45.05;99351.44;5079143;28;20028;-62
2021/05/12 06:52:33;;;;;;;10.52;2.28;;;;;;;19.52;45.46;99352.03;5079157;28;20027;-62
2021/05/12 06:54:59;;;;;;;8.38;2.22;;;;;;;19.54;44.57;99349.50;5078907;28;20335;-62
2021/05/12 06:57:24;;;;;;;4.47;1.70;;;;;;;19.53;44.99;99353.59;5078623;28;20052;-62
2021/05/12 06:59:49;;;;;;;4.88;2.00;;;;;;;19.53;45.10;99353.59;5079039;28;20028;-62
2021/05/12 07:02:15;;;;;;;4.38;1.80;;;;;;;19.58;45.36;99353.72;5064608;28;20418;-62
2021/05/12 07:04:40;;;;;;;10.30;2.13;;;;;;;19.68;44.88;99357.25;5079067;28;20075;-62
2021/05/12 07:07:05;;;;;;;9.30;1.90;;;;;;;19.68;45.14;99362.97;5078807;28;20372;-62
2021/05/12 07:09:31;;;;;;;4.38;2.25;;;;;;;19.72;45.27;99363.56;5078361;28;20033;-62
2021/05/12 07:11:56;;;;;;;3.83;1.83;;;;;;;19.76;45.43;99367.00;5078895;28;20024;-62
2021/05/12 07:14:22;;;;;;;4.90;1.75;;;;;;;19.83;45.64;99360.91;5078384;28;20016;-62
2021/05/12 07:16:47;;;;;;;9.63;2.40;;;;;;;19.90;44.89;99354.03;5078598;28;20332;-62
2021/05/12 07:19:12;;;;;;;6.70;2.22;;;;;;;19.97;45.80;99354.41;5078395;28;20054;-62
2021/05/12 07:21:38;;;;;;;3.78;2.05;;;;;;;20.05;45.21;99344.19;5078546;28;20427;-62
2021/05/12 07:24:04;;;;;;;5.18;2.33;;;;;;;20.13;45.93;99341.72;5078379;28;20028;-62
2021/05/12 07:26:29;;;;;;;8.95;2.65;;;;;;;20.21;45.72;99336.38;5078622;28;20016;-62
2021/05/12 07:28:54;;;;;;;6.15;2.00;;;;;;;20.29;45.97;99340.44;5078485;28;20019;-62
2021/05/12 07:31:20;;;;;;;6.68;2.03;;;;;;;20.37;45.46;99338.72;5078233;28;20028;-62
2021/05/12 07:33:47;;;;;;;3.80;2.20;;;;;;;20.46;45.61;99340.69;5077080;28;20017;-62
2021/05/12 07:36:12;;;;;;;6.97;2.25;;;;;;;20.56;45.15;99336.47;5078331;28;20031;-62
2021/05/12 07:38:38;;;;;;;8.48;2.38;;;;;;;20.64;45.65;99329.81;5077814;28;20036;-62
2021/05/12 07:41:04;;;;;;;6.55;2.60;;;;;;;20.73;45.42;99336.69;5078283;28;20021;-62
2021/05/12 07:43:29;;;;;;;5.60;2.67;;;;;;;20.85;45.33;99346.97;5077709;28;20112;-62
2021/05/12 07:45:57;;;;;;;4.47;2.22;;;;;;;20.99;45.50;99334.69;5077829;28;20020;-62
2021/05/12 07:48:22;;;;;;;6.88;2.78;;;;;;;21.09;44.42;99338.19;5078130;28;20107;-62
2021/05/12 07:50:48;;;;;;;12.45;3.33;;;;;;;21.18;44.33;99335.97;5077015;28;20059;-62
2021/05/12 07:53:13;;;;;;;8.50;2.28;;;;;;;21.27;45.20;99333.00;5077556;28;20048;-62
2021/05/12 07:55:38;;;;;;;6.57;2.33;;;;;;;21.39;45.01;99330.28;5078065;28;20056;-62
2021/05/12 07:58:04;;;;;;;6.35;2.38;;;;;;;21.51;45.78;99318.44;5078235;28;20081;-62
2021/05/12 08:00:32;;;;;;;11.82;2.45;;;;;;;21.63;44.53;99319.31;5077927;28;20028;-62
2021/05/12 08:02:58;;;;;;;7.75;2.38;;;;;;;21.78;45.82;99317.16;5063731;28;20020;-62
2021/05/12 08:05:23;;;;;;;8.77;2.50;;;;;;;21.86;44.45;99312.53;5077742;28;20372;-62
2021/05/12 08:07:49;;;;;;;5.85;2.22;;;;;;;21.92;44.32;99312.59;5077402;28;20028;-62
2021/05/12 08:10:14;;;;;;;5.10;2.17;;;;;;;21.96;44.66;99309.50;5077793;28;20293;-62
2021/05/12 08:12:40;;;;;;;4.97;2.35;;;;;;;21.99;44.42;99308.50;5077680;28;20020;-62
2021/05/12 08:15:07;;;;;;;7.75;2.25;;;;;;;21.98;44.27;99301.19;5077692;28;20045;-62
2021/05/12 08:17:33;;;;;;;7.32;2.60;;;;;;;21.98;44.88;99304.06;5077403;28;20392;-62
2021/05/12 08:20:00;;;;;;;3.53;2.35;;;;;;;21.99;44.66;99302.78;5077306;28;20021;-62
2021/05/12 08:22:25;;;;;;;4.80;2.15;;;;;;;22.01;44.47;99297.31;5077289;28;20016;-62
2021/05/12 08:24:51;;;;;;;4.03;2.03;;;;;;;22.06;45.12;99294.53;5077133;28;20089;-63
2021/05/12 08:27:16;;;;;;;7.35;2.60;;;;;;;22.10;45.08;99295.06;5077391;28;20017;-62
2021/05/12 08:29:43;;;;;;;5.00;2.85;;;;;;;22.12;44.57;99286.75;5077639;28;20031;-62
2021/05/12 08:32:15;;;;;;;8.18;2.80;;;;;;;22.14;44.93;99289.91;5076917;28;20060;-62
2021/05/12 08:34:40;;;;;;;8.48;2.40;;;;;;;22.19;45.24;99286.31;5077262;28;20032;-62
2021/05/12 08:37:06;;;;;;;6.63;2.20;;;;;;;22.25;45.37;99289.22;5076791;28;20012;-63
2021/05/12 08:39:33;;;;;;;6.40;2.92;;;;;;;22.35;44.76;99296.28;5077177;28;20068;-62
2021/05/12 08:41:59;;;;;;;6.18;2.50;;;;;;;22.43;44.52;99303.09;5076890;28;20343;-62
2021/05/12 08:44:25;;;;;;;3.67;2.47;;;;;;;22.48;44.06;99295.88;5076908;28;20112;-62
2021/05/12 08:46:51;;;;;;;6.22;2.13;;;;;;;22.50;43.56;99299.78;5076940;28;20040;-62
2021/05/12 08:49:19;;;;;;;4.70;2.60;;;;;;;22.50;43.82;99301.88;5076726;28;20090;-62
2021/05/12 08:51:45;;;;;;;10.05;3.13;;;;;;;22.50;43.84;99299.78;5076775;28;20056;-62
2021/05/12 08:54:11;;;;;;;6.63;2.50;;;;;;;22.51;43.93;99307.09;5076787;28;20315;-63
2021/05/12 08:56:37;;;;;;;13.77;2.80;;;;;;;22.51;43.77;99307.09;5075617;28;20086;-62
2021/05/12 08:59:03;;;;;;;9.60;2.92;;;;;;;22.51;43.25;99306.31;5076942;28;20028;-62
2021/05/12 09:01:28;;;;;;;6.05;2.50;;;;;;;22.49;43.44;99308.88;5068982;28;20025;-62
2021/05/12 09:03:54;;;;;;;4.07;2.63;;;;;;;22.47;43.39;99320.84;5070299;28;20759;-62
2021/05/12 09:06:20;;;;;;;9.13;2.50;;;;;;;22.45;43.45;99311.97;5076109;28;20104;-62
2021/05/12 09:08:47;;;;;;;2.50;2.17;;;;;;;22.46;43.72;99316.44;5076635;28;20024;-62
2021/05/12 09:11:13;;;;;;;6.25;2.10;;;;;;;22.51;44.75;99303.44;5076448;28;20031;-62
2021/05/12 09:13:41;;;;;;;7.60;2.40;;;;;;;22.61;44.67;99306.88;5076505;28;20166;-63
2021/05/12 09:16:34;;;;;;;8.63;2.45;;;;;;;22.71;44.68;99311.09;5076067;28;20122;-62
2021/05/12 09:19:11;;;;;;;5.00;1.88;;;;;;;22.78;44.69;99299.16;5076007;28;20043;-62
2021/05/12 09:21:56;;;;;;;8.10;2.63;;;;;;;22.86;43.80;99296.63;5075941;28;20029;-62
2021/05/12 09:24:41;;;;;;;5.00;2.35;;;;;;;22.93;44.31;99298.97;5075125;28;20025;-62
2021/05/12 09:27:19;;;;;;;8.55;2.40;;;;;;;23.04;45.40;99290.44;5076269;28;20013;-62
2021/05/12 09:29:45;;;;;;;6.15;2.38;;;;;;;23.12;44.36;99291.50;5076551;28;20032;-62
2021/05/12 09:32:15;;;;;;;7.72;2.85;;;;;;;23.17;42.98;99292.81;5074756;28;20407;-62
2021/05/12 09:35:08;;;;;;;4.85;2.53;;;;;;;23.20;43.02;99286.06;5074750;28;20031;-63
2021/05/12 09:37:38;;;;;;;4.45;2.33;;;;;;;23.23;43.50;99293.63;5075521;28;20068;-62
2021/05/12 09:40:13;;;;;;;7.65;3.13;;;;;;;23.25;43.80;99288.94;5074994;28;20137;-62
2021/05/12 09:42:40;;;;;;;9.43;2.72;;;;;;;23.28;43.14;99284.25;5048989;28;20056;-62
2021/05/12 09:45:17;;;;;;;5.60;3.10;;;;;;;23.33;43.78;99286.38;5076057;28;20024;-62
2021/05/12 09:47:45;;;;;;;7.75;2.15;;;;;;;23.36;43.02;99277.50;5075881;28;20032;-62
2021/05/12 09:50:24;;;;;;;6.53;2.45;;;;;;;23.38;43.02;99286.38;5075566;28;20036;-62
2021/05/12 09:52:57;;;;;;;14.48;3.42;;;;;;;23.42;43.47;99283.25;5076110;28;20029;-62
2021/05/12 09:55:45;;;;;;;7.07;2.33;;;;;;;23.47;42.86;99288.22;5075423;28;20032;-62
2021/05/12 09:58:15;;;;;;;5.55;2.50;;;;;;;23.51;43.58;99287.94;5075746;28;20066;-62
2021/05/12 10:00:42;;;;;;;5.35;1.85;;;;;;;23.51;43.37;99288.72;5074688;28;20024;-62
2021/05/12 10:03:12;;;;;;;15.52;3.40;;;;;;;23.53;44.00;99286.13;5062803;28;20343;-62
2021/05/12 10:05:49;;;;;;;10.80;2.83;;;;;;;23.58;43.77;99296.88;5075660;28;20027;-62
2021/05/12 10:08:37;;;;;;;11.75;3.13;;;;;;;23.63;44.12;99284.63;5075396;28;20031;-62
2021/05/12 10:11:12;;;;;;;8.18;3.30;;;;;;;23.68;44.87;99289.59;5075320;28;20020;-62
2021/05/12 10:13:38;;;;;;;10.68;2.55;;;;;;;23.73;44.46;99291.66;5075573;28;20028;-62
2021/05/12 10:16:05;;;;;;;12.32;4.10;;;;;;;23.80;45.21;99286.72;5075207;28;20062;-62
2021/05/12 10:18:32;;;;;;;9.38;3.70;;;;;;;23.79;44.05;99296.63;5075175;28;20044;-62
2021/05/12 10:21:00;;;;;;;7.40;2.97;;;;;;;23.78;43.98;99307.31;5075606;28;20096;-62
2021/05/12 10:23:26;;;;;;;19.23;3.47;;;;;;;23.77;44.57;99310.69;5075180;28;20051;-62
2021/05/12 10:25:53;;;;;;;14.65;3.50;;;;;;;23.74;44.48;99307.56;5075332;28;20031;-62
2021/05/12 10:28:19;;;;;;;10.77;3.13;;;;;;;23.73;44.44;99308.88;5075193;28;20043;-62
2021/05/12 10:30:49;;;;;;;11.55;2.65;;;;;;;23.71;44.31;99316.44;5074792;28;20020;-62
2021/05/12 10:33:16;;;;;;;7.15;2.80;;;;;;;23.68;44.52;99306.78;5074042;28;20024;-62
2021/05/12 10:35:42;;;;;;;11.02;2.80;;;;;;;23.69;44.94;99304.69;5075099;28;20024;-62
2021/05/12 10:38:28;;;;;;;8.85;3.15;;;;;;;23.65;44.64;99304.97;5075429;28;20078;-63
2021/05/12 10:40:53;;;;;;;9.57;3.60;;;;;;;23.66;45.51;99311.47;5074288;28;20407;-62
2021/05/12 10:43:28;;;;;;;13.32;3.22;;;;;;;23.64;45.26;99311.22;5075208;28;20070;-62
2021/05/12 10:46:05;;;;;;;8.32;3.78;;;;;;;23.57;45.37;99314.59;5073809;28;20016;-62
2021/05/12 10:48:47;;;;;;;6.70;2.70;;;;;;;23.51;46.21;99311.66;5074919;28;20051;-62
2021/05/12 10:51:27;;;;;;;14.25;4.13;;;;;;;23.48;47.22;99303.31;5075111;28;20025;-62
2021/05/12 10:53:55;;;;;;;12.68;3.67;;;;;;;23.46;46.63;99294.47;5075144;28;20021;-62
2021/05/12 10:56:43;;;;;;;22.50;4.35;;;;;;;23.43;46.97;99291.34;5074985;28;20048;-62
2021/05/12 10:59:15;;;;;;;8.48;4.35;;;;;;;23.47;48.39;99281.69;5075105;28;20028;-62
2021/05/12 11:01:41;;;;;;;8.93;3.17;;;;;;;23.49;48.30;99271.25;5065362;28;20036;-62
2021/05/12 11:04:11;;;;;;;10.60;4.23;;;;;;;23.52;48.31;99260.84;5070325;28;20024;-62
2021/05/12 11:06:39;;;;;;;8.95;3.75;;;;;;;23.51;47.88;99260.06;5075051;28;20242;-62
2021/05/12 11:09:06;;;;;;;8.35;3.83;;;;;;;23.50;47.55;99284.31;5075030;28;20033;-63
2021/05/12 11:11:32;;;;;;;11.40;3.90;;;;;;;23.47;48.53;99281.69;5075039;28;20111;-62
2021/05/12 11:14:21;;;;;;;11.95;3.80;;;;;;;23.40;47.49;99275.16;5075098;28;20024;-62
2021/05/12 11:17:08;;;;;;;8.65;3.17;;;;;;;23.32;46.44;99288.44;5074639;28;20048;-63
2021/05/12 11:19:41;;;;;;;10.13;2.85;;;;;;;23.30;46.77;99279.59;5076852;28;20037;-62
2021/05/12 11:22:32;;;;;;;6.10;2.88;;;;;;;23.27;46.95;99271.22;5078440;28;20026;-62
2021/05/12 11:25:10;;;;;;;12.02;2.97;;;;;;;23.27;47.69;99285.53;5078333;28;20434;-62
2021/05/12 11:32:36;;;;;;;8.23;3.20;;;;;;;23.31;50.81;99309.81;5078338;28;20032;-62
2021/05/12 11:35:04;;;;;;;11.55;3.35;;;;;;;23.36;51.10;99305.41;5078683;28;20103;-62
2021/05/12 11:37:33;;;;;;;9.48;3.50;;;;;;;23.43;51.26;99302.03;5078031;28;20366;-62